CYAS

Kangirsuk Supplementary Aviation Weather Reporting

Kangirsuk, Alberta, Canada
METAR CYAS 142100Z 14006KT 360V150 6SM -SN OVC052 M08/M09 A2953 RMK SC8 SNOW COVER ONE LOOST LAST STFD OBS NEXT 151300UTC SLP014
Observed Flight Rules
Dec-14 @ 21:00 UTC (3 hours ago) Visual Flight Rules
Wind Visibility Clouds Conditions
140° at 6 knots 6 miles
  • Overcast at 5,200' AGL
  • Light Snow
Temperatures Readings
Current -8°C / 18°F
Dewpoint -9°C / 16°F
Humidity 93%
Altimeter 29.53" Hg
Pressure 1001.4 hPa
Elevation 117
METAR CYAS 142100Z 14006KT 360V150 6SM -SN OVC052 M08/M09 A2953 RMK SC8 SNOW COVER ONE LOOST LAST STFD OBS NEXT 151300UTC SLP014
Observed Flight Rules
Dec-14 @ 21:00 UTC
(3 hours ago)
VFR
Wind Visibility
140° at 6 knots 6 miles
Clouds
  • Overcast at 5,200' AGL
Conditions
  • Light Snow
Temperature Dewpoint
-8°C / 18°F -9°C / 16°F
Humidity Altimeter Pressure
93% 29.53" Hg 1001.4 hPa